Time;durP1;ratioP1;P1;durP2;ratioP2;P2;SDS_P1;SDS_P2;PMS_P1;PMS_P2;Temp;Humidity;BMP_temperature;BMP_pressure;BME280_temperature;BME280_humidity;BME280_pressure;Samples;Min_cycle;Max_cycle;Signal;HPM_P1;HPM_P2
2023/09/23 00:02:22;;;;;;;2.80;2.40;;;11.60;99.90;;;;;;5155602;27;20404;-27
2023/09/23 00:04:48;;;;;;;4.85;3.35;;;11.40;99.90;;;;;;5155297;27;20039;-28
2023/09/23 00:07:14;;;;;;;4.35;2.80;;;11.60;99.90;;;;;;5155230;27;20039;-27
2023/09/23 00:09:40;;;;;;;3.13;2.58;;;11.40;99.90;;;;;;5153999;27;20110;-27
2023/09/23 00:12:06;;;;;;;4.50;2.65;;;11.50;99.90;;;;;;5155224;27;20043;-28
2023/09/23 00:14:32;;;;;;;5.78;2.97;;;11.50;99.90;;;;;;5155456;27;20050;-27
2023/09/23 00:16:58;;;;;;;4.35;2.55;;;11.40;99.90;;;;;;5157632;27;20095;-27
2023/09/23 00:19:25;;;;;;;3.83;2.47;;;11.60;99.90;;;;;;5158082;27;20038;-27
2023/09/23 00:21:51;;;;;;;4.20;2.40;;;11.60;99.90;;;;;;5159286;27;20514;-27
2023/09/23 00:24:17;;;;;;;4.65;2.00;;;11.50;99.90;;;;;;5157987;27;20086;-27
2023/09/23 00:26:43;;;;;;;2.55;1.98;;;11.40;99.90;;;;;;5158007;27;20044;-27
2023/09/23 00:29:11;;;;;;;3.00;2.20;;;11.40;99.90;;;;;;5159155;27;20071;-27
2023/09/23 00:31:37;;;;;;;3.92;1.58;;;11.40;99.90;;;;;;5141244;27;20125;-27
2023/09/23 00:34:03;;;;;;;1.98;1.60;;;11.40;99.90;;;;;;5159081;27;20150;-27
2023/09/23 00:36:28;;;;;;;2.38;1.10;;;11.50;99.90;;;;;;5159594;27;20046;-27
2023/09/23 00:38:56;;;;;;;7.68;2.63;;;11.40;99.90;;;;;;5158967;27;20049;-27
2023/09/23 00:41:21;;;;;;;2.10;0.90;;;11.50;99.90;;;;;;5157968;27;20042;-27
2023/09/23 00:43:47;;;;;;;1.33;0.90;;;11.40;99.90;;;;;;5159638;27;20043;-27
2023/09/23 00:46:19;;;;;;;1.52;0.80;;;11.50;99.90;;;;;;5158845;27;20043;-27
2023/09/23 00:48:45;;;;;;;2.55;0.90;;;11.40;99.90;;;;;;5158816;27;20090;-27
2023/09/23 00:51:11;;;;;;;1.73;0.90;;;11.50;99.90;;;;;;5158616;27;20081;-27
2023/09/23 00:53:40;;;;;;;3.15;0.73;;;11.40;99.90;;;;;;5159277;27;20042;-27
2023/09/23 00:56:08;;;;;;;2.72;0.88;;;11.50;99.90;;;;;;5158890;27;20053;-26
2023/09/23 00:58:36;;;;;;;2.20;0.85;;;11.40;99.90;;;;;;5158617;27;20045;-27
2023/09/23 01:01:05;;;;;;;1.77;1.00;;;11.30;99.90;;;;;;5157027;27;20053;-27
2023/09/23 01:03:31;;;;;;;2.85;0.82;;;11.30;99.90;;;;;;5158530;27;20050;-27
2023/09/23 01:06:15;;;;;;;2.05;0.77;;;11.30;99.90;;;;;;5158419;27;20039;-27
2023/09/23 01:08:42;;;;;;;1.90;0.80;;;11.50;99.90;;;;;;5158520;27;20054;-26
2023/09/23 01:11:08;;;;;;;0.95;0.60;;;11.40;99.90;;;;;;5158346;27;20484;-26
2023/09/23 01:13:36;;;;;;;1.30;0.75;;;11.30;99.90;;;;;;5159071;27;20038;-26
2023/09/23 01:16:06;;;;;;;3.25;0.65;;;11.40;99.90;;;;;;5158190;27;20054;-26
2023/09/23 01:18:34;;;;;;;2.28;0.80;;;11.20;99.90;;;;;;5158203;27;20043;-26
2023/09/23 01:21:01;;;;;;;2.03;0.80;;;11.20;99.90;;;;;;5158360;27;20046;-26
2023/09/23 01:23:26;;;;;;;2.40;1.13;;;11.20;99.90;;;;;;5158180;27;20051;-26
2023/09/23 01:25:52;;;;;;;2.95;1.00;;;11.30;99.90;;;;;;5158029;27;20049;-26
2023/09/23 01:28:18;;;;;;;2.83;1.05;;;11.20;99.90;;;;;;5157285;27;20099;-26
2023/09/23 01:30:45;;;;;;;1.70;1.10;;;11.30;99.90;;;;;;5157977;27;20046;-26
2023/09/23 01:33:14;;;;;;;2.55;1.63;;;11.10;99.90;;;;;;5158504;27;20043;-26
2023/09/23 01:35:41;;;;;;;2.20;1.40;;;11.10;99.90;;;;;;5157179;27;20484;-26
2023/09/23 01:38:07;;;;;;;2.50;1.30;;;11.30;99.90;;;;;;5157885;27;20365;-25
2023/09/23 01:40:35;;;;;;;1.98;0.90;;;11.10;99.90;;;;;;5157777;27;20046;-26
2023/09/23 01:43:02;;;;;;;1.55;1.17;;;11.10;99.90;;;;;;5157737;27;20510;-26
2023/09/23 01:45:28;;;;;;;2.67;1.50;;;11.30;99.90;;;;;;5158343;27;20053;-26
2023/09/23 01:47:57;;;;;;;2.75;1.48;;;11.00;99.90;;;;;;5157046;27;20039;-25
2023/09/23 01:50:24;;;;;;;2.38;1.30;;;11.10;99.90;;;;;;5157621;27;20041;-26
2023/09/23 01:52:50;;;;;;;2.85;1.95;;;10.90;99.90;;;;;;5156522;27;20047;-25
2023/09/23 01:55:17;;;;;;;2.05;1.50;;;11.10;99.90;;;;;;5157222;27;20453;-26
2023/09/23 01:57:43;;;;;;;2.30;1.40;;;10.90;99.90;;;;;;5158321;27;20042;-25
2023/09/23 02:00:17;;;;;;;2.40;1.35;;;10.90;99.90;;;;;;5156995;27;20388;-26
2023/09/23 02:02:44;;;;;;;5.97;1.40;;;10.60;99.90;;;;;;5157429;27;20051;-26
2023/09/23 02:05:10;;;;;;;2.60;1.30;;;10.80;99.90;;;;;;5156147;27;20093;-26
2023/09/23 02:07:35;;;;;;;4.15;1.30;;;10.50;99.90;;;;;;5157191;27;20089;-25
2023/09/23 02:10:02;;;;;;;2.45;1.15;;;10.60;99.90;;;;;;5157248;27;20039;-26
2023/09/23 02:12:27;;;;;;;2.78;1.63;;;10.50;99.90;;;;;;5155881;27;20051;-26
2023/09/23 02:14:53;;;;;;;3.72;1.77;;;10.20;99.90;;;;;;5157579;27;20054;-26
2023/09/23 02:17:22;;;;;;;3.15;1.30;;;10.40;99.90;;;;;;5156846;27;20063;-25
2023/09/23 02:19:51;;;;;;;2.90;1.63;;;;;;;;;;5155979;27;20045;-25
2023/09/23 02:22:18;;;;;;;3.38;1.33;;;10.30;99.90;;;;;;5156952;27;20042;-25
2023/09/23 02:24:44;;;;;;;3.85;1.60;;;10.20;99.90;;;;;;5156803;27;20043;-26
2023/09/23 02:27:10;;;;;;;2.70;1.92;;;10.00;99.90;;;;;;5157390;27;20060;-25
2023/09/23 02:29:36;;;;;;;2.15;1.42;;;10.10;99.90;;;;;;5155642;27;20050;-25
2023/09/23 02:32:01;;;;;;;3.00;2.10;;;10.20;99.90;;;;;;5157071;27;20057;-26
2023/09/23 02:34:30;;;;;;;2.50;2.00;;;10.10;99.90;;;;;;5156690;27;20042;-26
2023/09/23 02:36:56;;;;;;;3.15;2.30;;;10.30;99.90;;;;;;5156050;27;20046;-26
2023/09/23 02:39:22;;;;;;;3.78;2.80;;;10.40;99.90;;;;;;5155557;27;20046;-25
2023/09/23 02:41:49;;;;;;;4.72;3.05;;;10.50;99.90;;;;;;5156498;27;20517;-25
2023/09/23 02:44:19;;;;;;;4.88;3.17;;;10.10;99.90;;;;;;5156520;27;20043;-26
2023/09/23 02:46:49;;;;;;;4.95;3.55;;;10.50;99.90;;;;;;5156394;27;20051;-26
2023/09/23 02:49:16;;;;;;;4.45;3.17;;;10.50;99.90;;;;;;5157275;27;20125;-25
2023/09/23 02:51:42;;;;;;;8.75;4.45;;;10.30;99.90;;;;;;5156314;27;20540;-26
2023/09/23 02:54:11;;;;;;;6.97;4.32;;;10.20;99.90;;;;;;5155161;27;20043;-26
2023/09/23 02:56:36;;;;;;;9.10;4.90;;;10.60;99.90;;;;;;5156326;27;20062;-25
2023/09/23 02:59:13;;;;;;;7.30;5.15;;;10.40;99.90;;;;;;5156181;27;20090;-25
2023/09/23 03:01:51;;;;;;;10.63;6.03;;;10.20;99.90;;;;;;5156733;27;20051;-25
2023/09/23 03:04:16;;;;;;;10.00;6.35;;;10.30;99.90;;;;;;5155205;27;20055;-26
2023/09/23 03:06:50;;;;;;;10.02;7.32;;;10.50;99.90;;;;;;5156112;27;20103;-25
2023/09/23 03:09:19;;;;;;;;;;;10.60;99.90;;;;;;5157090;27;20047;-27
2023/09/23 03:11:58;;;;;;;10.30;6.97;;;10.20;99.90;;;;;;5156284;27;19919;-25
2023/09/23 03:14:35;;;;;;;11.65;8.32;;;10.50;99.90;;;;;;5156568;27;20076;-26
2023/09/23 03:17:03;;;;;;;11.63;8.93;;;10.50;99.90;;;;;;5156282;27;20057;-25
2023/09/23 03:19:31;;;;;;;13.40;8.48;;;10.40;99.90;;;;;;5155860;27;20057;-25
2023/09/23 03:21:58;;;;;;;12.20;8.82;;;10.10;99.90;;;;;;5155841;27;20395;-26
2023/09/23 03:24:28;;;;;;;16.52;9.32;;;10.10;99.90;;;;;;5155785;27;20480;-26
2023/09/23 03:26:56;;;;;;;15.80;9.50;;;10.40;99.90;;;;;;5156448;27;20050;-26
2023/09/23 03:29:22;;;;;;;13.32;9.80;;;10.00;99.90;;;;;;5156273;27;20051;-26
2023/09/23 03:31:51;;;;;;;14.32;9.85;;;10.40;99.90;;;;;;5155736;27;20038;-26
2023/09/23 03:34:17;;;;;;;12.57;9.32;;;10.40;99.90;;;;;;5155082;27;20053;-26
2023/09/23 03:36:44;;;;;;;14.70;10.18;;;10.50;99.90;;;;;;5155597;27;20484;-26
2023/09/23 03:39:10;;;;;;;14.10;9.98;;;10.30;99.90;;;;;;5155560;27;20035;-27
2023/09/23 03:41:40;;;;;;;15.50;11.45;;;10.00;99.90;;;;;;5154285;27;20377;-26
2023/09/23 03:44:07;;;;;;;18.77;11.50;;;10.20;99.90;;;;;;5155502;27;20039;-25
2023/09/23 03:46:34;;;;;;;18.90;11.63;;;9.90;99.90;;;;;;5155550;27;20039;-26
2023/09/23 03:49:02;;;;;;;17.90;10.13;;;10.20;99.90;;;;;;5155457;27;20043;-25
2023/09/23 03:51:28;;;;;;;21.95;11.77;;;10.40;99.90;;;;;;5153740;27;20127;-26
2023/09/23 03:53:54;;;;;;;17.90;12.57;;;10.40;99.90;;;;;;5156215;27;20050;-25
2023/09/23 03:56:24;;;;;;;17.20;12.45;;;10.30;99.90;;;;;;5154982;27;20077;-25
2023/09/23 03:58:54;;;;;;;18.48;13.00;;;10.40;99.90;;;;;;5155420;27;20086;-26
2023/09/23 04:01:19;;;;;;;17.90;11.70;;;10.30;99.90;;;;;;5154075;27;20526;-25
2023/09/23 04:03:45;;;;;;;19.85;12.93;;;10.00;99.90;;;;;;5154013;27;20047;-26
2023/09/23 04:06:11;;;;;;;18.67;11.23;;;9.90;99.90;;;;;;5155276;27;20053;-25
2023/09/23 04:08:37;;;;;;;23.38;14.30;;;10.00;99.90;;;;;;5155275;27;20125;-25
2023/09/23 04:11:07;;;;;;;17.85;12.45;;;10.00;99.90;;;;;;5155786;27;20042;-26
2023/09/23 04:13:33;;;;;;;18.42;12.38;;;10.40;99.90;;;;;;5155277;27;20104;-25
2023/09/23 04:16:02;;;;;;;18.77;12.65;;;9.90;99.90;;;;;;5155197;27;20043;-25
2023/09/23 04:18:28;;;;;;;21.73;14.50;;;9.90;99.90;;;;;;5155848;27;20432;-26
2023/09/23 04:20:54;;;;;;;20.75;14.48;;;10.40;99.90;;;;;;5154795;27;20480;-26
2023/09/23 04:23:20;;;;;;;17.83;13.10;;;9.90;99.90;;;;;;5155097;27;20043;-25
2023/09/23 04:25:49;;;;;;;19.40;14.15;;;10.20;99.90;;;;;;5155128;27;20061;-25
2023/09/23 04:28:14;;;;;;;19.48;14.27;;;9.90;99.90;;;;;;5155094;27;20050;-26
2023/09/23 04:30:40;;;;;;;22.30;14.73;;;9.80;99.90;;;;;;5154316;27;20043;-25
2023/09/23 04:33:06;;;;;;;23.52;15.13;;;9.80;99.90;;;;;;5155054;27;20043;-25
2023/09/23 04:35:32;;;;;;;25.75;15.68;;;9.70;99.90;;;;;;5155525;27;20129;-26
2023/09/23 04:37:58;;;;;;;25.98;16.50;;;10.30;99.90;;;;;;5154919;27;20097;-26
2023/09/23 04:40:24;;;;;;;23.60;15.48;;;9.90;99.90;;;;;;5154863;27;20095;-26
2023/09/23 04:42:49;;;;;;;23.70;15.65;;;10.30;99.90;;;;;;5154294;27;20406;-26
2023/09/23 04:45:17;;;;;;;25.70;16.70;;;10.40;99.90;;;;;;5154905;27;20161;-26
2023/09/23 04:47:47;;;;;;;25.20;16.30;;;9.90;99.90;;;;;;5154907;27;20095;-26
2023/09/23 04:50:13;;;;;;;24.27;15.48;;;9.90;99.90;;;;;;5155142;27;20438;-26
2023/09/23 04:52:39;;;;;;;22.75;15.13;;;10.00;99.90;;;;;;5154699;27;20047;-26
2023/09/23 04:55:06;;;;;;;22.63;15.07;;;10.00;99.90;;;;;;5154856;27;20138;-26
2023/09/23 04:57:32;;;;;;;18.25;13.88;;;10.20;99.90;;;;;;5154811;27;20050;-25
2023/09/23 04:59:58;;;;;;;22.55;15.05;;;10.40;99.90;;;;;;5153717;27;20047;-26
2023/09/23 05:02:24;;;;;;;19.60;13.60;;;10.10;99.90;;;;;;5155791;27;20155;-25
2023/09/23 05:04:53;;;;;;;19.25;13.68;;;10.00;99.90;;;;;;5157518;27;20050;-25
2023/09/23 05:07:25;;;;;;;17.48;12.85;;;10.00;99.90;;;;;;5156999;27;20580;-26
2023/09/23 05:09:51;;;;;;;18.10;13.35;;;10.40;99.90;;;;;;5158392;27;20117;-25
2023/09/23 05:12:18;;;;;;;16.38;12.45;;;10.20;99.90;;;;;;5158941;27;20448;-25
2023/09/23 05:14:44;;;;;;;16.88;12.07;;;10.20;99.90;;;;;;5157336;27;20091;-25
2023/09/23 05:17:15;;;;;;;17.10;11.40;;;10.30;99.90;;;;;;5158146;27;20440;-25
2023/09/23 05:19:47;;;;;;;13.60;10.98;;;10.00;99.90;;;;;;5158989;27;20135;-25
2023/09/23 05:22:13;;;;;;;19.48;10.57;;;9.90;99.90;;;;;;5159066;27;20184;-25
2023/09/23 05:24:39;;;;;;;12.77;10.60;;;9.90;99.90;;;;;;5157413;27;20487;-25
2023/09/23 05:27:05;;;;;;;13.00;9.23;;;10.20;99.90;;;;;;5157667;27;20042;-26
2023/09/23 05:33:42;;;;;;;12.73;9.85;;;9.90;99.90;;;;;;5156257;27;20077;-25
2023/09/23 05:36:08;;;;;;;12.93;10.05;;;9.80;99.90;;;;;;5141936;27;20142;-25
2023/09/23 05:38:36;;;;;;;15.27;10.38;;;9.70;99.90;;;;;;5150912;27;20115;-25
2023/09/23 05:41:03;;;;;;;14.38;10.85;;;10.10;99.90;;;;;;5152750;27;20099;-25
2023/09/23 05:43:29;;;;;;;14.70;10.60;;;9.70;99.90;;;;;;5155091;27;20042;-25
2023/09/23 05:45:55;;;;;;;14.45;10.63;;;10.00;99.90;;;;;;5153772;27;20039;-25
2023/09/23 05:48:21;;;;;;;15.52;11.18;;;9.70;99.90;;;;;;5146717;27;20096;-25
2023/09/23 05:50:48;;;;;;;16.80;11.10;;;9.70;99.90;;;;;;5139142;27;20405;-25
2023/09/23 05:53:13;;;;;;;15.77;11.85;;;10.00;99.90;;;;;;5139001;27;20053;-25
2023/09/23 05:55:39;;;;;;;18.50;12.63;;;9.70;99.90;;;;;;5142433;27;20062;-25
2023/09/23 05:58:04;;;;;;;15.77;11.27;;;9.60;99.90;;;;;;5150110;27;20074;-25
2023/09/23 06:00:30;;;;;;;16.20;11.35;;;9.80;99.90;;;;;;5149132;27;20072;-25
2023/09/23 06:02:56;;;;;;;14.80;10.88;;;9.90;99.90;;;;;;5143370;27;20074;-25
2023/09/23 06:05:22;;;;;;;16.88;11.80;;;10.10;99.90;;;;;;5118466;27;20054;-25
2023/09/23 06:07:48;;;;;;;16.75;12.70;;;10.00;99.90;;;;;;5135935;27;20366;-25
2023/09/23 06:10:14;;;;;;;16.83;11.93;;;9.80;99.90;;;;;;5136442;27;20095;-25
2023/09/23 06:12:40;;;;;;;16.65;11.75;;;9.80;99.90;;;;;;5137077;27;20057;-26
2023/09/23 06:15:08;;;;;;;15.30;11.82;;;9.80;99.90;;;;;;5136151;27;20042;-25
2023/09/23 06:17:35;;;;;;;16.48;12.55;;;10.20;99.90;;;;;;5136288;27;20059;-25
2023/09/23 06:20:02;;;;;;;15.90;11.98;;;9.90;99.90;;;;;;5136079;27;20043;-25
2023/09/23 06:22:28;;;;;;;18.15;12.98;;;10.20;99.90;;;;;;5136997;27;20070;-25
2023/09/23 06:24:54;;;;;;;18.48;12.50;;;10.10;99.90;;;;;;5134966;27;20472;-26
2023/09/23 06:27:21;;;;;;;18.02;13.55;;;10.40;99.90;;;;;;5134744;27;20043;-25
2023/09/23 06:29:46;;;;;;;17.98;12.57;;;10.30;99.90;;;;;;5135989;27;20554;-26
2023/09/23 06:32:13;;;;;;;17.17;12.40;;;10.40;99.90;;;;;;5134779;27;20047;-25
2023/09/23 06:34:39;;;;;;;22.10;14.27;;;10.70;99.90;;;;;;5134954;27;20051;-26
2023/09/23 06:37:04;;;;;;;22.98;14.55;;;10.90;99.90;;;;;;5135868;27;20130;-25
2023/09/23 06:39:30;;;;;;;20.90;14.23;;;10.80;99.90;;;;;;5134908;27;20111;-26
2023/09/23 06:41:56;;;;;;;20.63;14.65;;;11.10;99.90;;;;;;5136280;27;20107;-26
2023/09/23 06:44:22;;;;;;;19.42;15.10;;;11.10;99.90;;;;;;5135749;27;20039;-26
2023/09/23 06:46:50;;;;;;;20.48;14.10;;;11.30;99.90;;;;;;5136034;27;20047;-26
2023/09/23 06:49:16;;;;;;;20.23;14.95;;;11.30;99.90;;;;;;5136273;27;20046;-26
2023/09/23 06:51:42;;;;;;;20.10;14.82;;;11.30;99.90;;;;;;5135479;27;20117;-25
2023/09/23 06:54:08;;;;;;;20.60;14.70;;;11.40;99.90;;;;;;5135124;27;20066;-25
2023/09/23 06:56:37;;;;;;;23.13;14.82;;;11.40;99.90;;;;;;5136410;27;20461;-26
2023/09/23 06:59:03;;;;;;;19.77;15.48;;;11.50;99.90;;;;;;5135384;27;20143;-26
2023/09/23 07:01:29;;;;;;;20.98;15.43;;;11.50;99.90;;;;;;5117228;27;20085;-26
2023/09/23 07:03:55;;;;;;;22.45;15.30;;;11.70;99.90;;;;;;5135008;27;20042;-26
2023/09/23 07:06:21;;;;;;;19.42;13.93;;;11.90;99.90;;;;;;5135359;27;20047;-26
2023/09/23 07:08:46;;;;;;;18.52;14.13;;;11.90;99.90;;;;;;5135325;27;20125;-26
2023/09/23 07:11:13;;;;;;;21.23;13.73;;;12.00;99.90;;;;;;5135775;27;20104;-26
2023/09/23 07:13:39;;;;;;;21.48;13.77;;;11.80;99.90;;;;;;5136106;27;20047;-26
2023/09/23 07:16:05;;;;;;;17.60;13.60;;;12.00;99.90;;;;;;5134287;27;20039;-27
2023/09/23 07:18:31;;;;;;;18.13;12.90;;;12.10;99.90;;;;;;5133964;27;20070;-26
2023/09/23 07:20:57;;;;;;;17.27;12.65;;;12.10;99.90;;;;;;5133936;27;20100;-26
2023/09/23 07:23:23;;;;;;;16.65;12.15;;;12.10;99.90;;;;;;5133935;27;20086;-26
2023/09/23 07:25:49;;;;;;;18.25;13.48;;;12.20;99.90;;;;;;5133700;27;20055;-26
2023/09/23 07:28:15;;;;;;;17.58;13.32;;;12.30;99.90;;;;;;5134956;27;20051;-27
2023/09/23 07:30:41;;;;;;;16.85;12.70;;;12.40;99.90;;;;;;5133492;27;20481;-26
2023/09/23 07:33:07;;;;;;;19.27;12.50;;;12.60;99.90;;;;;;5134866;27;20042;-26
2023/09/23 07:35:33;;;;;;;16.52;12.70;;;12.90;99.90;;;;;;5133911;27;20085;-26
2023/09/23 07:38:02;;;;;;;17.63;11.98;;;13.00;99.90;;;;;;5134051;27;20065;-26
2023/09/23 07:40:31;;;;;;;20.10;13.35;;;13.30;99.90;;;;;;5134307;27;20043;-26
2023/09/23 07:42:57;;;;;;;16.27;11.65;;;13.50;99.90;;;;;;5134843;27;20050;-26
2023/09/23 07:45:23;;;;;;;15.25;11.13;;;13.70;99.90;;;;;;5135253;27;20054;-27
2023/09/23 07:47:49;;;;;;;13.48;8.82;;;13.70;99.90;;;;;;5134484;27;20465;-27
2023/09/23 07:50:16;;;;;;;12.35;9.90;;;13.70;99.90;;;;;;5135480;27;20036;-26
2023/09/23 07:52:41;;;;;;;15.25;10.38;;;13.70;99.90;;;;;;5133639;27;20545;-27
2023/09/23 07:55:08;;;;;;;11.20;9.38;;;13.70;99.90;;;;;;5134334;27;20051;-26
2023/09/23 07:57:33;;;;;;;12.63;7.95;;;13.70;99.90;;;;;;5134621;28;20051;-27
2023/09/23 08:00:00;;;;;;;12.02;8.52;;;13.60;99.90;;;;;;5133487;28;20049;-26
2023/09/23 08:02:25;;;;;;;12.73;7.88;;;13.60;99.90;;;;;;5134432;28;20046;-26
2023/09/23 08:04:51;;;;;;;12.98;8.60;;;13.60;99.90;;;;;;5134525;28;20142;-26
2023/09/23 08:07:17;;;;;;;15.05;9.43;;;13.40;99.90;;;;;;5134147;28;20043;-26
2023/09/23 08:09:43;;;;;;;12.68;9.07;;;13.40;99.90;;;;;;5134447;28;20079;-26
2023/09/23 08:12:09;;;;;;;11.85;9.38;;;13.40;99.90;;;;;;5134431;28;20054;-26
2023/09/23 08:14:35;;;;;;;11.75;8.50;;;13.70;99.90;;;;;;5134440;27;20047;-27
2023/09/23 08:17:01;;;;;;;11.68;8.77;;;13.70;99.90;;;;;;5133666;28;20546;-26
2023/09/23 08:19:27;;;;;;;12.93;8.90;;;13.90;99.90;;;;;;5133640;28;20086;-27
2023/09/23 08:21:53;;;;;;;11.63;9.15;;;14.00;99.90;;;;;;5133131;28;20469;-26
2023/09/23 08:24:21;;;;;;;12.90;9.13;;;14.10;99.90;;;;;;5116364;28;20047;-27
2023/09/23 08:26:47;;;;;;;11.82;8.18;;;14.10;99.90;;;;;;5134384;27;20122;-27
2023/09/23 08:29:14;;;;;;;10.52;7.95;;;14.20;99.90;;;;;;5099045;28;20396;-26
2023/09/23 08:31:40;;;;;;;10.65;7.38;;;14.20;99.90;;;;;;5134295;27;20047;-26
2023/09/23 08:34:09;;;;;;;9.05;6.45;;;14.40;99.90;;;;;;5133967;27;20125;-26
2023/09/23 08:36:38;;;;;;;10.38;6.55;;;14.50;99.90;;;;;;5135538;27;20066;-26
2023/09/23 08:39:09;;;;;;;9.05;6.03;;;14.50;99.90;;;;;;5137074;27;20039;-26
2023/09/23 08:41:36;;;;;;;7.90;6.35;;;14.40;99.90;;;;;;5137897;27;20093;-26
2023/09/23 08:44:05;;;;;;;8.00;6.22;;;14.40;99.90;;;;;;5138463;27;20055;-27
2023/09/23 08:46:32;;;;;;;12.55;6.82;;;14.40;99.90;;;;;;5138977;27;20043;-27
2023/09/23 08:49:01;;;;;;;8.32;5.72;;;14.50;99.90;;;;;;5138631;27;20051;-26
2023/09/23 08:51:30;;;;;;;9.40;5.90;;;14.50;99.90;;;;;;5138423;27;20054;-26
2023/09/23 08:53:55;;;;;;;7.15;5.82;;;14.60;99.90;;;;;;5137972;27;20043;-28
2023/09/23 08:56:21;;;;;;;8.30;5.85;;;14.80;99.90;;;;;;5138487;27;20046;-26
2023/09/23 08:58:50;;;;;;;8.00;5.63;;;14.80;99.90;;;;;;5138426;27;20042;-26
2023/09/23 09:01:17;;;;;;;8.95;4.45;;;15.00;99.90;;;;;;5137795;27;20046;-27
2023/09/23 09:03:43;;;;;;;8.77;4.38;;;15.10;99.90;;;;;;5137868;27;20051;-27
2023/09/23 09:06:27;;;;;;;3.88;2.85;;;15.30;99.90;;;;;;5137766;27;20079;-26
2023/09/23 09:08:53;;;;;;;6.13;2.67;;;16.00;99.90;;;;;;5120494;27;20051;-27
2023/09/23 09:11:24;;;;;;;3.63;2.33;;;16.80;99.90;;;;;;5119871;27;20134;-27
2023/09/23 09:13:50;;;;;;;3.83;2.33;;;17.00;99.90;;;;;;5153942;27;20051;-27
2023/09/23 09:16:16;;;;;;;5.50;2.50;;;17.50;99.90;;;;;;5120285;27;20520;-27
2023/09/23 09:18:42;;;;;;;5.78;2.20;;;17.80;99.90;;;;;;5137250;27;20054;-26
2023/09/23 09:21:08;;;;;;;5.30;1.67;;;17.70;99.90;;;;;;5137407;27;20043;-25
2023/09/23 09:23:37;;;;;;;3.08;1.63;;;17.20;99.90;;;;;;5137755;27;20050;-27
2023/09/23 09:26:04;;;;;;;7.10;2.30;;;17.20;99.90;;;;;;5119276;27;20058;-26
2023/09/23 09:28:30;;;;;;;3.30;1.85;;;17.00;99.90;;;;;;5137375;27;20059;-26
2023/09/23 09:30:57;;;;;;;3.28;1.65;;;16.60;99.90;;;;;;5137285;27;20488;-26
2023/09/23 09:33:29;;;;;;;5.90;2.28;;;16.30;99.90;;;;;;5136403;27;20047;-26
2023/09/23 09:35:58;;;;;;;4.88;2.10;;;16.30;99.90;;;;;;5137764;27;20385;-26
2023/09/23 09:38:27;;;;;;;3.28;2.20;;;16.70;99.90;;;;;;5137154;27;20061;-26
2023/09/23 09:41:04;;;;;;;4.55;1.73;;;17.30;99.90;;;;;;5136986;27;20043;-26
2023/09/23 09:43:33;;;;;;;3.97;1.30;;;18.30;99.90;;;;;;5144342;27;20107;-26
2023/09/23 09:46:08;;;;;;;6.70;2.05;;;18.90;99.90;;;;;;5157550;27;20039;-26
2023/09/23 09:48:37;;;;;;;4.47;2.08;;;19.30;1.00;;;;;;5150514;27;20039;-26
2023/09/23 09:51:06;;;;;;;3.05;1.20;;;19.00;99.90;;;;;;5150494;27;20510;-26
2023/09/23 09:53:33;;;;;;;5.18;2.25;;;18.30;99.90;;;;;;5144197;27;20100;-26
2023/09/23 09:55:59;;;;;;;9.40;2.08;;;17.40;99.90;;;;;;5152849;27;20121;-25
2023/09/23 09:58:38;;;;;;;6.28;1.70;;;16.40;99.90;;;;;;5146361;27;20047;-26
2023/09/23 10:01:07;;;;;;;5.32;1.77;;;15.50;99.90;;;;;;5144723;27;20046;-25
2023/09/23 10:03:36;;;;;;;5.30;2.45;;;15.20;99.90;;;;;;5148900;27;20396;-25
2023/09/23 10:06:02;;;;;;;3.45;1.20;;;14.80;99.90;;;;;;5150905;27;20042;-25
2023/09/23 10:08:36;;;;;;;4.15;1.30;;;14.70;99.90;;;;;;5145599;27;20054;-26
2023/09/23 10:11:06;;;;;;;4.40;1.75;;;14.50;99.90;;;;;;5157304;27;20058;-25
2023/09/23 10:13:32;;;;;;;6.43;1.70;;;14.60;99.90;;;;;;5140548;27;20111;-26
2023/09/23 10:16:17;;;;;;;4.90;2.13;;;14.90;99.90;;;;;;5135227;27;20047;-26
2023/09/23 10:18:44;;;;;;;3.90;1.40;;;15.10;99.90;;;;;;5136675;27;20078;-26
2023/09/23 10:21:29;;;;;;;4.82;1.88;;;15.20;99.90;;;;;;5152880;27;20053;-26
2023/09/23 10:23:56;;;;;;;4.55;1.20;;;15.60;99.90;;;;;;5151310;27;20396;-26
2023/09/23 10:26:23;;;;;;;2.10;1.05;;;15.90;99.90;;;;;;5136510;27;20429;-26
2023/09/23 10:28:59;;;;;;;6.10;2.38;;;16.40;99.90;;;;;;5128605;27;20107;-26
2023/09/23 10:31:28;;;;;;;5.07;2.17;;;17.60;99.90;;;;;;5151238;27;20042;-26
2023/09/23 10:33:55;;;;;;;5.28;2.05;;;18.60;99.90;;;;;;5154879;27;20552;-28
2023/09/23 10:36:22;;;;;;;2.80;1.38;;;19.10;99.90;;;;;;5156374;27;20038;-26
2023/09/23 10:38:48;;;;;;;3.38;1.48;;;19.30;1.00;;;;;;5156733;27;20053;-26
2023/09/23 10:41:14;;;;;;;4.47;1.70;;;19.00;1.00;;;;;;5156602;27;20094;-26
2023/09/23 10:43:40;;;;;;;2.85;0.75;;;18.30;1.00;;;;;;5156580;27;20043;-26
2023/09/23 10:46:06;;;;;;;1.80;0.52;;;17.60;99.90;;;;;;5155391;27;20160;-26
2023/09/23 10:48:32;;;;;;;3.20;0.75;;;17.10;99.90;;;;;;5155373;27;20129;-26
2023/09/23 10:51:01;;;;;;;3.10;0.70;;;16.90;99.90;;;;;;5156373;27;20063;-26
2023/09/23 10:53:30;;;;;;;3.83;0.68;;;16.80;99.90;;;;;;5156445;27;20049;-26
2023/09/23 10:55:57;;;;;;;1.65;0.63;;;16.80;1.00;;;;;;5138361;27;20046;-26
2023/09/23 10:58:24;;;;;;;3.17;0.82;;;17.00;1.00;;;;;;5156944;27;20507;-26
2023/09/23 11:00:52;;;;;;;4.10;0.95;;;18.00;99.90;;;;;;5155274;27;20043;-26
2023/09/23 11:03:19;;;;;;;5.95;0.63;;;18.60;99.90;;;;;;5156181;27;20050;-25
2023/09/23 11:05:47;;;;;;;2.40;0.70;;;18.30;24.90;;;;;;5155452;27;20353;-26
2023/09/23 11:08:15;;;;;;;1.77;0.65;;;17.90;84.40;;;;;;5156402;27;20045;-26
2023/09/23 11:10:42;;;;;;;1.67;0.30;;;17.50;1.00;;;;;;5156613;27;20081;-26
2023/09/23 11:13:10;;;;;;;2.30;0.32;;;17.20;1.00;;;;;;5156028;27;20042;-26
2023/09/23 11:15:38;;;;;;;2.00;0.40;;;16.90;1.00;;;;;;5155987;27;20053;-26
2023/09/23 11:18:07;;;;;;;2.30;0.30;;;16.70;93.10;;;;;;5156085;27;20137;-25
2023/09/23 11:20:35;;;;;;;2.88;0.40;;;16.50;99.90;;;;;;5154726;27;20082;-25
2023/09/23 11:23:05;;;;;;;2.58;0.40;;;16.30;99.90;;;;;;5137283;27;20058;-25
2023/09/23 11:25:42;;;;;;;1.63;0.28;;;16.20;1.00;;;;;;5155824;27;20046;-25
2023/09/23 11:28:18;;;;;;;3.05;0.60;;;16.20;1.00;;;;;;5154260;27;20460;-25
2023/09/23 11:30:45;;;;;;;1.95;0.47;;;16.40;1.00;;;;;;5155992;27;20474;-25
2023/09/23 11:33:14;;;;;;;2.58;0.60;;;16.80;55.70;;;;;;5155599;27;20053;-25
2023/09/23 11:35:41;;;;;;;2.20;0.50;;;17.20;1.00;;;;;;5154356;27;20082;-25
2023/09/23 11:38:07;;;;;;;1.05;0.20;;;17.10;1.00;;;;;;5154969;27;20070;-26
2023/09/23 11:40:34;;;;;;;0.65;0.10;;;16.80;99.90;;;;;;5155819;27;20059;-25
2023/09/23 11:43:00;;;;;;;0.85;0.20;;;16.30;99.90;;;;;;5155550;27;20134;-23
2023/09/23 11:45:26;;;;;;;0.68;0.38;;;15.60;1.00;;;;;;5155561;27;20046;-22
2023/09/23 11:47:55;;;;;;;2.85;0.30;;;15.10;99.90;;;;;;5155520;27;20046;-22
2023/09/23 11:50:21;;;;;;;1.63;0.28;;;15.00;99.90;;;;;;5155493;27;20046;-22
2023/09/23 11:52:46;;;;;;;0.80;0.22;;;15.10;99.90;;;;;;5155337;27;20078;-22
2023/09/23 11:55:13;;;;;;;1.73;0.20;;;15.10;99.90;;;;;;5156173;27;20126;-22
2023/09/23 11:57:41;;;;;;;1.35;0.10;;;15.10;99.90;;;;;;5154423;27;20089;-22
2023/09/23 12:00:10;;;;;;;0.20;0.03;;;15.20;99.90;;;;;;5155846;27;20046;-22
2023/09/23 12:02:40;;;;;;;0.50;0.20;;;15.10;99.90;;;;;;5155348;27;20086;-22
2023/09/23 12:05:16;;;;;;;1.25;0.15;;;15.20;99.90;;;;;;5155324;27;20043;-22
2023/09/23 12:07:43;;;;;;;1.05;0.40;;;15.20;99.90;;;;;;5155333;27;20046;-22
2023/09/23 12:10:09;;;;;;;1.40;0.30;;;15.40;99.90;;;;;;5154962;27;20466;-22
2023/09/23 12:12:35;;;;;;;1.10;0.57;;;15.60;99.90;;;;;;5158934;27;20050;-23
2023/09/23 12:15:02;;;;;;;1.17;0.38;;;15.90;99.90;;;;;;5159719;27;20065;-23
2023/09/23 12:17:28;;;;;;;1.08;0.28;;;16.30;99.90;;;;;;5140896;27;20058;-24
2023/09/23 12:19:53;;;;;;;2.03;0.40;;;17.00;99.90;;;;;;5159336;27;20043;-24
2023/09/23 12:22:20;;;;;;;1.67;0.40;;;17.40;94.80;;;;;;5159891;27;20058;-24
2023/09/23 12:24:46;;;;;;;1.95;0.90;;;17.50;1.00;;;;;;5160149;27;20073;-25
2023/09/23 12:27:12;;;;;;;1.20;0.47;;;17.40;1.00;;;;;;5159266;27;20504;-25
2023/09/23 12:29:38;;;;;;;1.45;0.50;;;17.60;69.50;;;;;;5159248;27;20120;-25
2023/09/23 12:32:05;;;;;;;1.45;0.60;;;18.00;1.00;;;;;;5159220;27;20066;-25
2023/09/23 12:34:31;;;;;;;2.55;0.80;;;18.40;1.00;;;;;;5159157;27;20139;-25
2023/09/23 12:36:58;;;;;;;3.13;0.60;;;18.60;99.90;;;;;;5159058;27;20042;-25
2023/09/23 12:39:24;;;;;;;2.38;0.40;;;18.70;99.90;;;;;;5159557;27;20042;-26
2023/09/23 12:41:50;;;;;;;2.65;0.65;;;18.90;99.90;;;;;;5158870;27;20068;-25
2023/09/23 12:44:17;;;;;;;1.02;0.25;;;18.80;1.00;;;;;;5158969;27;20485;-25
2023/09/23 12:46:43;;;;;;;2.35;0.47;;;18.70;1.00;;;;;;5158916;27;20050;-25